createdAt,value
2019-02-17T00:00:59.275Z,0.10
2019-02-17T00:03:28.673Z,0.10
2019-02-17T00:05:58.128Z,0.20
2019-02-17T00:08:27.536Z,0.10
2019-02-17T00:10:56.945Z,0.10
2019-02-17T00:13:26.259Z,0.20
2019-02-17T00:15:55.486Z,0.10
2019-02-17T00:18:24.783Z,0.00
2019-02-17T00:20:54.032Z,0.10
2019-02-17T00:23:23.262Z,0.10
2019-02-17T00:25:52.430Z,0.10
2019-02-17T00:28:21.719Z,0.00
2019-02-17T00:30:50.992Z,-0.10
2019-02-17T00:33:20.179Z,-0.10
2019-02-17T00:35:49.512Z,0.00
2019-02-17T00:38:18.827Z,0.00
2019-02-17T00:40:48.190Z,0.00
2019-02-17T00:43:17.456Z,-0.10
2019-02-17T00:45:46.626Z,-0.10
2019-02-17T00:48:15.953Z,-0.20
2019-02-17T00:50:45.230Z,-0.30
2019-02-17T00:53:14.592Z,-0.20
2019-02-17T00:55:43.874Z,-0.30
2019-02-17T00:58:13.248Z,-0.30
2019-02-17T01:00:42.512Z,-0.40
2019-02-17T01:03:11.774Z,-0.40
2019-02-17T01:05:40.990Z,-0.40
2019-02-17T01:08:10.175Z,-0.50
2019-02-17T01:10:39.579Z,-0.50
2019-02-17T01:13:08.829Z,-0.50
2019-02-17T01:15:38.008Z,-0.60
2019-02-17T01:18:07.287Z,-0.60
2019-02-17T01:20:36.541Z,-0.70
2019-02-17T01:23:05.805Z,-0.70
2019-02-17T01:25:35.068Z,-0.70
2019-02-17T01:28:04.387Z,-0.80
2019-02-17T01:30:33.649Z,-0.80
2019-02-17T01:33:02.911Z,-0.80
2019-02-17T01:35:32.179Z,-0.70
2019-02-17T01:38:01.474Z,-0.70
2019-02-17T01:40:30.732Z,-0.70
2019-02-17T01:43:00.026Z,-0.70
2019-02-17T01:45:29.345Z,-0.80
2019-02-17T01:47:58.640Z,-0.90
2019-02-17T01:50:27.882Z,-1.00
2019-02-17T01:52:57.208Z,-1.00
2019-02-17T01:55:26.521Z,-1.00
2019-02-17T01:57:55.807Z,-1.00
2019-02-17T02:00:27.887Z,-1.00
2019-02-17T02:02:57.083Z,-1.00
2019-02-17T02:05:26.695Z,-1.00
2019-02-17T02:07:56.286Z,-1.00
2019-02-17T02:10:25.489Z,-0.90
2019-02-17T02:12:54.678Z,-1.00
2019-02-17T02:15:23.963Z,-1.10
2019-02-17T02:17:53.163Z,-1.20
2019-02-17T02:20:22.747Z,-1.30
2019-02-17T02:22:51.980Z,-1.30
2019-02-17T02:25:21.197Z,-1.40
2019-02-17T02:27:50.437Z,-1.30
2019-02-17T02:30:19.722Z,-1.10
2019-02-17T02:32:49.074Z,-1.20
2019-02-17T02:35:18.403Z,-1.10
2019-02-17T02:37:47.688Z,-1.10
2019-02-17T02:40:17.015Z,-1.20
2019-02-17T02:42:46.218Z,-1.10
2019-02-17T02:45:15.585Z,-1.20
2019-02-17T02:47:44.948Z,-1.20
2019-02-17T02:50:14.288Z,-1.30
2019-02-17T02:52:43.502Z,-1.30
2019-02-17T02:55:12.820Z,-1.40
2019-02-17T02:57:42.095Z,-1.40
2019-02-17T03:00:12.360Z,-1.40
2019-02-17T03:02:41.726Z,-1.40
2019-02-17T03:05:11.050Z,-1.40
2019-02-17T03:07:40.343Z,-1.40
2019-02-17T03:10:10.392Z,-1.40
2019-02-17T03:12:39.763Z,-1.40
2019-02-17T03:15:09.195Z,-1.40
2019-02-17T03:17:38.442Z,-1.40
2019-02-17T03:20:08.506Z,-1.30
2019-02-17T03:22:37.781Z,-1.30
2019-02-17T03:25:07.163Z,-1.30
2019-02-17T03:27:36.368Z,-1.40
2019-02-17T03:30:06.407Z,-1.40
2019-02-17T03:32:35.647Z,-1.40
2019-02-17T03:35:04.946Z,-1.40
2019-02-17T03:37:34.281Z,-1.50
2019-02-17T03:40:03.572Z,-1.60
2019-02-17T03:42:32.760Z,-1.60
2019-02-17T03:45:02.017Z,-1.70
2019-02-17T03:47:31.265Z,-1.70
2019-02-17T03:50:00.571Z,-1.70
2019-02-17T03:52:29.900Z,-1.70
2019-02-17T03:54:59.272Z,-1.70
2019-02-17T03:57:28.602Z,-1.80
2019-02-17T03:59:57.788Z,-1.70
2019-02-17T04:02:27.030Z,-1.80
2019-02-17T04:04:56.234Z,-1.80
2019-02-17T04:07:25.512Z,-1.90
2019-02-17T04:09:54.742Z,-1.80
2019-02-17T04:12:23.986Z,-1.80
2019-02-17T04:14:53.306Z,-1.80
2019-02-17T04:17:22.556Z,-1.90
2019-02-17T04:19:51.858Z,-1.90
2019-02-17T04:22:21.197Z,-1.90
2019-02-17T04:24:50.658Z,-1.90
2019-02-17T04:27:19.919Z,-1.90
2019-02-17T04:29:49.169Z,-2.00
2019-02-17T04:32:18.422Z,-2.00
2019-02-17T04:34:47.606Z,-1.90
2019-02-17T04:37:16.830Z,-1.90
2019-02-17T04:39:46.047Z,-1.80
2019-02-17T04:42:15.282Z,-1.80
2019-02-17T04:44:44.586Z,-1.80
2019-02-17T04:47:13.868Z,-1.80
2019-02-17T04:49:43.042Z,-1.80
2019-02-17T04:52:12.281Z,-1.80
2019-02-17T04:54:41.455Z,-1.90
2019-02-17T04:57:10.808Z,-2.00
2019-02-17T04:59:40.022Z,-2.00
2019-02-17T05:02:09.269Z,-2.00
2019-02-17T05:04:38.478Z,-2.00
2019-02-17T05:07:07.664Z,-2.10
2019-02-17T05:09:36.940Z,-2.10
2019-02-17T05:12:06.221Z,-2.20
2019-02-17T05:14:35.410Z,-2.20
2019-02-17T05:17:04.645Z,-2.20
2019-02-17T05:19:33.824Z,-2.20
2019-02-17T05:22:02.994Z,-2.30
2019-02-17T05:24:32.330Z,-2.30
2019-02-17T05:27:01.508Z,-2.30
2019-02-17T05:29:30.855Z,-2.30
2019-02-17T05:32:00.150Z,-2.40
2019-02-17T05:34:29.454Z,-2.40
2019-02-17T05:36:58.619Z,-2.40
2019-02-17T05:39:27.953Z,-2.40
2019-02-17T05:41:57.110Z,-2.50
2019-02-17T05:44:26.330Z,-2.50
2019-02-17T05:46:55.591Z,-2.50
2019-02-17T05:49:24.857Z,-2.50
2019-02-17T05:51:54.044Z,-2.50
2019-02-17T05:54:23.656Z,-2.50
2019-02-17T05:56:52.859Z,-2.50
2019-02-17T05:59:22.062Z,-2.60
2019-02-17T06:01:51.478Z,-2.50
2019-02-17T06:04:20.820Z,-2.50
2019-02-17T06:06:50.181Z,-2.60
2019-02-17T06:09:19.530Z,-2.60
2019-02-17T06:11:48.786Z,-2.50
2019-02-17T06:14:18.008Z,-2.60
2019-02-17T06:16:47.188Z,-2.60
2019-02-17T06:19:17.841Z,-2.60
2019-02-17T06:21:47.314Z,-2.60
2019-02-17T06:24:16.506Z,-2.60
2019-02-17T06:26:45.734Z,-2.60
2019-02-17T06:29:14.923Z,-2.50
2019-02-17T06:31:44.208Z,-2.40
2019-02-17T06:34:13.408Z,-2.50
2019-02-17T06:36:42.592Z,-2.50
2019-02-17T06:39:11.882Z,-2.40
2019-02-17T06:41:41.082Z,-2.20
2019-02-17T06:44:10.358Z,-1.70
2019-02-17T06:46:44.498Z,-1.20
2019-02-17T06:49:13.797Z,-0.60
2019-02-17T06:51:43.036Z,-0.20
2019-02-17T06:54:12.323Z,0.10
2019-02-17T06:56:49.494Z,0.00
2019-02-17T06:59:18.696Z,0.30
2019-02-17T07:01:47.998Z,0.60
2019-02-17T07:04:17.727Z,1.10
2019-02-17T07:06:57.677Z,1.40
2019-02-17T07:09:26.955Z,1.50
2019-02-17T07:11:56.863Z,1.90
2019-02-17T07:14:26.293Z,2.40
2019-02-17T07:16:55.598Z,2.70
2019-02-17T07:19:24.828Z,2.90
2019-02-17T07:21:54.072Z,3.50
2019-02-17T07:24:23.334Z,3.50
2019-02-17T07:26:52.593Z,3.40
2019-02-17T07:29:21.841Z,3.20
2019-02-17T07:31:51.108Z,2.90
2019-02-17T07:34:20.392Z,2.50
2019-02-17T07:36:49.761Z,2.40
2019-02-17T07:39:18.955Z,2.70
2019-02-17T07:41:48.147Z,3.80
2019-02-17T07:44:17.380Z,4.40
2019-02-17T07:46:46.664Z,5.00
2019-02-17T07:49:15.892Z,5.70
2019-02-17T07:51:45.162Z,6.10
2019-02-17T07:54:14.436Z,6.40
2019-02-17T07:56:43.709Z,6.90
2019-02-17T07:59:13.029Z,7.30
2019-02-17T08:01:45.404Z,7.50
2019-02-17T08:04:13.344Z,7.70
2019-02-17T08:06:42.658Z,7.60
2019-02-17T08:09:12.098Z,7.50
2019-02-17T08:11:41.377Z,7.40
2019-02-17T08:14:10.745Z,7.70
2019-02-17T08:16:41.059Z,7.60
2019-02-17T08:19:10.339Z,7.90
2019-02-17T08:21:39.594Z,8.80
2019-02-17T08:24:08.887Z,9.00
2019-02-17T08:26:38.225Z,8.60
2019-02-17T08:29:07.425Z,9.10
2019-02-17T08:31:36.719Z,9.40
2019-02-17T08:34:05.968Z,9.30
2019-02-17T08:36:35.227Z,9.70
2019-02-17T08:39:05.387Z,9.70
2019-02-17T08:41:34.654Z,9.70
2019-02-17T08:44:03.903Z,10.00
2019-02-17T08:46:33.223Z,9.00
2019-02-17T08:49:02.488Z,8.90
2019-02-17T08:51:31.752Z,9.30
2019-02-17T08:54:00.927Z,9.70
2019-02-17T08:56:30.309Z,9.70
2019-02-17T08:58:59.530Z,10.40
2019-02-17T09:01:28.791Z,11.00
2019-02-17T09:03:58.059Z,11.20
2019-02-17T09:06:27.307Z,11.20
2019-02-17T09:08:56.556Z,11.00
2019-02-17T09:11:25.775Z,11.50
2019-02-17T09:13:55.179Z,12.10
2019-02-17T09:16:24.582Z,11.70
2019-02-17T09:18:53.915Z,12.40
2019-02-17T09:21:23.201Z,12.70
2019-02-17T09:23:52.574Z,12.70
2019-02-17T09:26:22.037Z,12.90
2019-02-17T09:28:51.302Z,12.70
2019-02-17T09:31:20.644Z,13.30
2019-02-17T09:33:50.006Z,13.80
2019-02-17T09:36:19.311Z,12.90
2019-02-17T09:38:48.611Z,13.30
2019-02-17T09:41:17.875Z,12.70
2019-02-17T09:43:47.154Z,12.80
2019-02-17T09:46:16.408Z,13.00
2019-02-17T09:48:45.636Z,13.20
2019-02-17T09:51:14.918Z,13.10
2019-02-17T09:53:44.236Z,13.20
2019-02-17T09:56:13.515Z,13.80
2019-02-17T09:58:42.833Z,14.10
2019-02-17T10:01:12.107Z,14.00
2019-02-17T10:03:41.299Z,14.60
2019-02-17T10:06:10.499Z,15.40
2019-02-17T10:08:39.739Z,16.10
2019-02-17T10:11:08.920Z,16.00
2019-02-17T10:13:38.212Z,16.30
2019-02-17T10:16:07.594Z,16.40
2019-02-17T10:18:36.799Z,16.40
2019-02-17T10:21:06.058Z,16.10
2019-02-17T10:23:35.285Z,16.60
2019-02-17T10:26:04.612Z,16.50
2019-02-17T10:28:42.012Z,16.00
2019-02-17T10:31:04.970Z,16.40
2019-02-17T10:33:34.186Z,16.70
2019-02-17T10:36:03.572Z,17.10
2019-02-17T10:38:32.812Z,17.10
2019-02-17T10:41:02.136Z,17.40
2019-02-17T10:43:31.382Z,17.90
2019-02-17T10:46:00.653Z,18.90
2019-02-17T10:48:29.875Z,18.80
2019-02-17T10:50:59.018Z,19.10
2019-02-17T10:53:28.300Z,19.60
2019-02-17T10:55:57.492Z,20.20
2019-02-17T10:58:26.842Z,20.10
2019-02-17T11:00:56.029Z,19.90
2019-02-17T11:03:25.229Z,20.20
2019-02-17T11:05:54.486Z,19.90
2019-02-17T11:08:28.491Z,19.80
2019-02-17T11:10:57.724Z,20.20
2019-02-17T11:13:27.015Z,20.80
2019-02-17T11:15:56.249Z,20.20
2019-02-17T11:18:25.430Z,20.60
2019-02-17T11:20:54.644Z,20.50
2019-02-17T11:23:23.875Z,20.50
2019-02-17T11:25:53.174Z,20.70
2019-02-17T11:28:22.475Z,20.60
2019-02-17T11:30:51.643Z,20.30
2019-02-17T11:33:21.025Z,20.70
2019-02-17T11:35:50.224Z,21.30
2019-02-17T11:38:19.482Z,21.40
2019-02-17T11:40:48.762Z,21.80
2019-02-17T11:43:18.052Z,23.00
2019-02-17T11:45:47.256Z,22.30
2019-02-17T11:48:16.536Z,19.80
2019-02-17T11:50:45.845Z,19.00
2019-02-17T11:53:15.015Z,18.80
2019-02-17T11:55:44.200Z,18.60
2019-02-17T11:58:13.636Z,18.20
2019-02-17T12:00:43.030Z,19.10
2019-02-17T12:03:12.211Z,19.00
2019-02-17T12:05:41.487Z,19.80
2019-02-17T12:08:10.737Z,19.60
2019-02-17T12:10:39.960Z,19.70
2019-02-17T12:13:09.237Z,19.60
2019-02-17T12:15:38.480Z,21.80
2019-02-17T12:18:07.738Z,20.70
2019-02-17T12:20:47.676Z,20.60
2019-02-17T12:23:20.655Z,21.50
2019-02-17T12:26:11.706Z,21.90
2019-02-17T12:29:08.937Z,21.10
2019-02-17T12:31:39.240Z,21.00
2019-02-17T12:34:08.429Z,19.80
2019-02-17T12:36:37.773Z,20.70
2019-02-17T12:39:09.628Z,21.00
2019-02-17T12:41:38.993Z,20.90
2019-02-17T12:44:08.284Z,20.80
2019-02-17T12:46:37.564Z,21.00
2019-02-17T12:49:06.752Z,19.80
2019-02-17T12:51:36.044Z,19.80
2019-02-17T12:54:05.323Z,17.50
2019-02-17T12:56:34.608Z,15.60
2019-02-17T12:59:03.902Z,15.20
2019-02-17T13:01:33.235Z,15.10
2019-02-17T13:04:02.562Z,14.40
2019-02-17T13:06:32.000Z,13.90
2019-02-17T13:09:01.339Z,14.10
2019-02-17T13:11:30.663Z,14.00
2019-02-17T13:14:00.031Z,13.70
2019-02-17T13:16:29.346Z,13.80
2019-02-17T13:18:58.845Z,13.90
2019-02-17T13:21:28.603Z,13.70
2019-02-17T13:23:58.147Z,13.70
2019-02-17T13:26:27.878Z,13.50
2019-02-17T13:28:57.720Z,13.50
2019-02-17T13:31:27.573Z,13.30
2019-02-17T13:33:57.348Z,13.20
2019-02-17T13:36:26.932Z,13.30
2019-02-17T13:38:56.819Z,13.30
2019-02-17T13:41:26.458Z,13.40
2019-02-17T13:43:55.849Z,13.30
2019-02-17T13:46:25.529Z,13.30
2019-02-17T13:48:55.047Z,13.30
2019-02-17T13:51:24.579Z,13.40
2019-02-17T13:53:54.212Z,13.30
2019-02-17T13:56:23.569Z,13.30
2019-02-17T13:58:52.846Z,13.10
2019-02-17T14:01:22.164Z,13.20
2019-02-17T14:03:51.509Z,13.10
2019-02-17T14:06:20.688Z,13.20
2019-02-17T14:08:49.994Z,13.10
2019-02-17T14:11:19.256Z,13.00
2019-02-17T14:13:48.535Z,13.00
2019-02-17T14:16:17.839Z,12.90
2019-02-17T14:18:47.165Z,12.90
2019-02-17T14:21:16.496Z,12.90
2019-02-17T14:23:45.712Z,12.90
2019-02-17T14:26:14.980Z,12.90
2019-02-17T14:28:44.343Z,12.90
2019-02-17T14:31:13.564Z,13.00
2019-02-17T14:33:42.810Z,13.20
2019-02-17T14:36:12.221Z,13.30
2019-02-17T14:38:41.463Z,13.30
2019-02-17T14:41:10.802Z,13.20
2019-02-17T14:43:40.021Z,13.00
2019-02-17T14:46:09.408Z,12.90
2019-02-17T14:48:39.123Z,12.90
2019-02-17T14:51:08.476Z,12.90
2019-02-17T14:53:37.772Z,13.00
2019-02-17T14:56:06.995Z,12.90
2019-02-17T14:58:36.185Z,12.90
2019-02-17T15:01:05.527Z,12.90
2019-02-17T15:03:34.799Z,12.80
2019-02-17T15:06:04.124Z,12.70
2019-02-17T15:08:33.478Z,12.70
2019-02-17T15:11:02.919Z,12.60
2019-02-17T15:13:32.299Z,12.60
2019-02-17T15:16:01.535Z,12.50
2019-02-17T15:18:30.766Z,12.40
2019-02-17T15:20:59.971Z,12.30
2019-02-17T15:23:29.145Z,12.30
2019-02-17T15:25:58.454Z,12.30
2019-02-17T15:28:27.656Z,12.30
2019-02-17T15:30:56.972Z,12.20
2019-02-17T15:33:26.281Z,12.20
2019-02-17T15:35:55.596Z,12.10
2019-02-17T15:38:24.970Z,12.10
2019-02-17T15:40:54.354Z,12.00
2019-02-17T15:43:23.703Z,12.00
2019-02-17T15:45:53.027Z,11.90
2019-02-17T15:48:22.454Z,12.50
2019-02-17T15:50:51.747Z,14.50
2019-02-17T15:53:21.153Z,16.00
2019-02-17T15:55:50.498Z,15.90
2019-02-17T15:58:19.873Z,15.10
2019-02-17T16:00:49.166Z,14.20
2019-02-17T16:03:18.485Z,13.60
2019-02-17T16:05:48.018Z,12.90
2019-02-17T16:08:17.213Z,12.30
2019-02-17T16:10:46.543Z,12.00
2019-02-17T16:13:15.784Z,11.80
2019-02-17T16:15:45.043Z,11.60
2019-02-17T16:18:14.287Z,11.30
2019-02-17T16:20:43.665Z,11.10
2019-02-17T16:23:12.994Z,11.00
2019-02-17T16:25:42.361Z,10.90
2019-02-17T16:28:11.627Z,10.80
2019-02-17T16:30:40.849Z,10.60
2019-02-17T16:33:10.235Z,10.50
2019-02-17T16:35:39.620Z,10.40
2019-02-17T16:38:08.869Z,10.30
2019-02-17T16:40:38.236Z,10.30
2019-02-17T16:43:07.595Z,10.20
2019-02-17T16:45:36.955Z,10.10
2019-02-17T16:48:06.295Z,10.00
2019-02-17T16:50:35.687Z,9.80
2019-02-17T16:53:05.012Z,9.70
2019-02-17T16:55:34.267Z,9.90
2019-02-17T16:58:03.595Z,10.10
2019-02-17T17:00:32.857Z,10.30
2019-02-17T17:03:04.657Z,10.00
2019-02-17T17:05:33.887Z,9.70
2019-02-17T17:08:03.250Z,9.40
2019-02-17T17:10:32.633Z,9.10
2019-02-17T17:13:01.932Z,8.80
2019-02-17T17:15:31.289Z,8.70
2019-02-17T17:18:00.655Z,8.60
2019-02-17T17:20:30.006Z,8.40
2019-02-17T17:22:59.291Z,8.20
2019-02-17T17:25:28.638Z,8.00
2019-02-17T17:27:57.935Z,7.90
2019-02-17T17:30:27.303Z,7.70
2019-02-17T17:32:56.535Z,7.60
2019-02-17T17:35:25.896Z,7.50
2019-02-17T17:37:55.162Z,7.30
2019-02-17T17:40:26.014Z,7.20
2019-02-17T17:42:55.287Z,7.10
2019-02-17T17:45:24.594Z,6.90
2019-02-17T17:47:53.896Z,6.90
2019-02-17T17:50:23.196Z,6.80
2019-02-17T17:52:53.373Z,6.60
2019-02-17T17:55:22.627Z,6.50
2019-02-17T17:57:51.809Z,6.40
2019-02-17T18:00:21.832Z,6.40
2019-02-17T18:02:51.169Z,6.30
2019-02-17T18:05:20.518Z,6.20
2019-02-17T18:07:49.887Z,6.10
2019-02-17T18:10:19.224Z,6.00
2019-02-17T18:12:48.645Z,5.90
2019-02-17T18:15:17.923Z,5.80
2019-02-17T18:17:53.954Z,5.70
2019-02-17T18:20:18.248Z,5.60
2019-02-17T18:22:47.586Z,5.50
2019-02-17T18:25:16.886Z,5.40
2019-02-17T18:27:46.218Z,5.40
2019-02-17T18:30:16.627Z,5.30
2019-02-17T18:32:46.197Z,5.20
2019-02-17T18:35:19.918Z,5.20
2019-02-17T18:37:46.456Z,5.10
2019-02-17T18:40:15.829Z,5.00
2019-02-17T18:42:45.263Z,5.00
2019-02-17T18:45:14.655Z,4.90
2019-02-17T18:47:43.979Z,4.80
2019-02-17T18:50:13.598Z,4.80
2019-02-17T18:52:42.876Z,4.80
2019-02-17T18:55:12.581Z,4.70
2019-02-17T18:57:49.535Z,4.60
2019-02-17T19:00:14.302Z,4.50
2019-02-17T19:02:43.665Z,4.50
2019-02-17T19:05:13.189Z,4.40
2019-02-17T19:07:42.474Z,4.30
2019-02-17T19:10:12.450Z,4.30
2019-02-17T19:12:41.815Z,4.30
2019-02-17T19:15:12.431Z,4.30
2019-02-17T19:17:41.716Z,4.30
2019-02-17T19:20:12.991Z,4.10
2019-02-17T19:22:42.299Z,4.10
2019-02-17T19:25:11.575Z,4.00
2019-02-17T19:27:40.871Z,3.90
2019-02-17T19:30:11.195Z,3.90
2019-02-17T19:32:40.575Z,3.80
2019-02-17T19:35:11.040Z,3.90
2019-02-17T19:37:40.414Z,3.80
2019-02-17T19:40:10.889Z,3.80
2019-02-17T19:42:40.158Z,3.70
2019-02-17T19:45:10.580Z,3.80
2019-02-17T19:47:39.891Z,3.70
2019-02-17T19:50:10.782Z,3.60
2019-02-17T19:52:40.247Z,3.50
2019-02-17T19:55:09.706Z,3.50
2019-02-17T19:57:39.047Z,3.50
2019-02-17T20:00:10.871Z,3.40
2019-02-17T20:02:58.020Z,3.30
2019-02-17T20:05:29.536Z,3.20
2019-02-17T20:07:58.964Z,3.30
2019-02-17T20:10:28.345Z,3.50
2019-02-17T20:12:57.656Z,3.40
2019-02-17T20:15:29.614Z,3.30
2019-02-17T20:17:58.976Z,3.10
2019-02-17T20:20:28.384Z,3.10
2019-02-17T20:22:57.674Z,2.90
2019-02-17T20:25:27.158Z,2.80
2019-02-17T20:27:56.476Z,2.80
2019-02-17T20:30:25.849Z,2.70
2019-02-17T20:32:56.014Z,2.60
2019-02-17T20:35:25.377Z,2.70
2019-02-17T20:37:54.643Z,2.90
2019-02-17T20:40:23.944Z,3.00
2019-02-17T20:42:53.300Z,2.80
2019-02-17T20:45:22.713Z,2.60
2019-02-17T20:47:52.090Z,2.50
2019-02-17T20:50:21.352Z,2.40
2019-02-17T20:52:50.601Z,2.60
2019-02-17T20:55:19.905Z,2.40
2019-02-17T20:57:49.210Z,2.40
2019-02-17T21:00:24.192Z,2.50
2019-02-17T21:02:53.482Z,2.50
2019-02-17T21:05:22.728Z,2.40
2019-02-17T21:07:52.014Z,2.40
2019-02-17T21:10:21.310Z,2.30
2019-02-17T21:12:50.696Z,2.30
2019-02-17T21:15:21.188Z,2.10
2019-02-17T21:17:50.445Z,1.90
2019-02-17T21:20:20.490Z,1.80
2019-02-17T21:22:49.856Z,2.00
2019-02-17T21:25:19.124Z,1.90
2019-02-17T21:27:48.382Z,1.90
2019-02-17T21:30:17.726Z,1.90
2019-02-17T21:32:47.002Z,1.90
2019-02-17T21:35:16.443Z,1.80
2019-02-17T21:37:45.738Z,1.90
2019-02-17T21:40:15.352Z,1.80
2019-02-17T21:42:44.697Z,1.70
2019-02-17T21:45:13.979Z,1.80
2019-02-17T21:47:43.309Z,1.60
2019-02-17T21:50:12.706Z,1.80
2019-02-17T21:52:42.417Z,1.60
2019-02-17T21:55:11.964Z,1.40
2019-02-17T21:57:41.268Z,1.50
2019-02-17T22:00:13.022Z,1.70
2019-02-17T22:02:42.332Z,2.10
2019-02-17T22:05:11.684Z,2.00
2019-02-17T22:07:40.902Z,1.90
2019-02-17T22:10:11.174Z,2.10
2019-02-17T22:12:40.776Z,1.80
2019-02-17T22:15:12.396Z,1.50
2019-02-17T22:17:42.019Z,1.30
2019-02-17T22:20:12.089Z,1.60
2019-02-17T22:22:41.596Z,1.40
2019-02-17T22:25:11.338Z,1.30
2019-02-17T22:27:40.777Z,1.50
2019-02-17T22:30:10.451Z,1.50
2019-02-17T22:32:39.744Z,1.30
2019-02-17T22:35:09.291Z,1.20
2019-02-17T22:37:38.647Z,1.00
2019-02-17T22:40:09.116Z,1.00
2019-02-17T22:42:38.443Z,1.00
2019-02-17T22:45:08.452Z,0.90
2019-02-17T22:47:37.789Z,0.80
2019-02-17T22:50:08.130Z,0.80
2019-02-17T22:52:37.586Z,0.80
2019-02-17T22:55:08.753Z,0.70
2019-02-17T22:57:38.120Z,0.60
2019-02-17T23:00:21.806Z,0.70
2019-02-17T23:02:51.186Z,0.80
2019-02-17T23:05:20.501Z,0.80
2019-02-17T23:07:50.107Z,1.00
2019-02-17T23:10:19.500Z,1.10
2019-02-17T23:12:48.904Z,0.90
2019-02-17T23:15:18.277Z,0.90
2019-02-17T23:17:47.604Z,0.90
2019-02-17T23:20:17.079Z,0.60
2019-02-17T23:22:46.422Z,0.60
2019-02-17T23:25:16.059Z,0.50
2019-02-17T23:27:46.712Z,0.30
2019-02-17T23:30:16.179Z,0.60
2019-02-17T23:32:45.639Z,0.40
2019-02-17T23:35:15.003Z,0.30
2019-02-17T23:37:44.337Z,0.40
2019-02-17T23:40:13.697Z,0.90
2019-02-17T23:42:43.092Z,0.70
2019-02-17T23:45:12.690Z,0.60
2019-02-17T23:47:42.031Z,0.60
2019-02-17T23:50:12.195Z,0.70
2019-02-17T23:52:42.351Z,0.60
2019-02-17T23:55:11.847Z,0.50
2019-02-17T23:57:41.204Z,0.50
